createdAt,value
2016-12-10T00:01:03.594Z,14
2016-12-10T00:02:35.442Z,14
2016-12-10T00:04:08.213Z,14
2016-12-10T00:05:39.608Z,14
2016-12-10T00:07:11.891Z,14
2016-12-10T00:08:44.097Z,14
2016-12-10T00:10:15.763Z,14
2016-12-10T00:11:49.652Z,14
2016-12-10T00:13:01.870Z,14
2016-12-10T00:14:27.997Z,14
2016-12-10T00:15:59.284Z,14
2016-12-10T00:17:30.636Z,14
2016-12-10T00:18:42.669Z,14
2016-12-10T00:20:13.675Z,14
2016-12-10T00:21:40.066Z,14
2016-12-10T00:23:11.344Z,14
2016-12-10T00:24:23.732Z,14
2016-12-10T00:25:55.053Z,14
2016-12-10T00:27:27.683Z,13
2016-12-10T00:28:59.815Z,14
2016-12-10T00:30:31.299Z,13
2016-12-10T00:32:03.526Z,13
2016-12-10T00:33:35.526Z,13
2016-12-10T00:35:07.272Z,13
2016-12-10T00:36:38.268Z,13
2016-12-10T00:37:50.504Z,13
2016-12-10T00:39:16.365Z,13
2016-12-10T00:40:28.634Z,13
2016-12-10T00:41:59.595Z,13
2016-12-10T00:43:31.065Z,13
2016-12-10T00:45:02.665Z,13
2016-12-10T00:46:30.916Z,13
2016-12-10T00:47:43.817Z,13
2016-12-10T00:49:10.134Z,13
2016-12-10T00:50:41.588Z,13
2016-12-10T00:52:14.250Z,13
2016-12-10T00:53:45.357Z,13
2016-12-10T00:54:57.983Z,13
2016-12-10T00:56:28.665Z,13
2016-12-10T00:58:00.499Z,13
2016-12-10T00:59:31.446Z,13
2016-12-10T01:01:02.563Z,13
2016-12-10T01:02:33.471Z,13
2016-12-10T01:03:45.753Z,13
2016-12-10T01:05:18.284Z,13
2016-12-10T01:06:44.071Z,13
2016-12-10T01:08:09.946Z,13
2016-12-10T01:09:22.172Z,13
2016-12-10T01:10:53.319Z,13
2016-12-10T01:12:24.240Z,13
2016-12-10T01:13:55.464Z,13
2016-12-10T01:15:28.062Z,13
2016-12-10T01:16:39.734Z,13
2016-12-10T01:18:10.631Z,13
2016-12-10T01:19:36.703Z,13
2016-12-10T01:20:48.720Z,13
2016-12-10T01:22:19.391Z,13
2016-12-10T01:23:50.782Z,13
2016-12-10T01:25:22.488Z,13
2016-12-10T01:26:48.653Z,13
2016-12-10T01:28:00.758Z,13
2016-12-10T01:29:32.175Z,13
2016-12-10T01:31:03.051Z,13
2016-12-10T01:32:34.588Z,13
2016-12-10T01:34:05.911Z,13
2016-12-10T01:35:36.771Z,13
2016-12-10T01:36:49.657Z,13
2016-12-10T01:38:21.971Z,13
2016-12-10T01:39:53.151Z,13
2016-12-10T01:41:27.732Z,13
2016-12-10T01:42:59.050Z,13
2016-12-10T01:44:30.340Z,13
2016-12-10T01:46:01.347Z,13
2016-12-10T01:47:32.986Z,13
2016-12-10T01:49:04.105Z,13
2016-12-10T01:50:35.540Z,13
2016-12-10T01:51:47.322Z,13
2016-12-10T01:53:18.711Z,13
2016-12-10T01:54:49.925Z,13
2016-12-10T01:56:21.276Z,13
2016-12-10T01:57:52.387Z,12
2016-12-10T01:59:23.960Z,13
2016-12-10T02:00:57.055Z,12
2016-12-10T02:02:28.195Z,12
2016-12-10T02:03:40.921Z,12
2016-12-10T02:05:11.637Z,12
2016-12-10T02:06:37.734Z,12
2016-12-10T02:07:49.705Z,12
2016-12-10T02:09:21.021Z,12
2016-12-10T02:10:52.547Z,12
2016-12-10T02:12:23.716Z,12
2016-12-10T02:13:55.016Z,12
2016-12-10T02:15:25.882Z,12
2016-12-10T02:16:56.809Z,12
2016-12-10T02:18:08.832Z,12
2016-12-10T02:19:39.770Z,12
2016-12-10T02:21:11.299Z,12
2016-12-10T02:22:42.512Z,12
2016-12-10T02:24:09.361Z,12
2016-12-10T02:25:21.475Z,12
2016-12-10T02:26:52.136Z,12
2016-12-10T02:28:23.052Z,12
2016-12-10T02:29:54.399Z,12
2016-12-10T02:31:26.130Z,12
2016-12-10T02:32:57.126Z,12
2016-12-10T02:34:09.109Z,12
2016-12-10T02:35:40.064Z,12
2016-12-10T02:37:11.486Z,12
2016-12-10T02:38:42.477Z,12
2016-12-10T02:40:13.797Z,12
2016-12-10T02:41:44.795Z,12
2016-12-10T02:42:57.103Z,12
2016-12-10T02:44:22.705Z,12
2016-12-10T02:45:53.792Z,12
2016-12-10T02:47:25.388Z,12
2016-12-10T02:48:37.461Z,12
2016-12-10T02:50:08.370Z,12
2016-12-10T02:51:39.643Z,12
2016-12-10T02:53:10.755Z,12
2016-12-10T02:54:42.335Z,12
2016-12-10T02:56:13.597Z,12
2016-12-10T02:57:45.207Z,12
2016-12-10T02:58:56.977Z,12
2016-12-10T03:00:28.174Z,12
2016-12-10T03:01:59.049Z,12
2016-12-10T03:03:30.343Z,12
2016-12-10T03:05:01.501Z,12
2016-12-10T03:06:32.641Z,12
2016-12-10T03:07:44.668Z,12
2016-12-10T03:09:15.337Z,12
2016-12-10T03:10:46.563Z,12
2016-12-10T03:12:14.609Z,12
2016-12-10T03:13:26.628Z,12
2016-12-10T03:14:57.339Z,12
2016-12-10T03:16:28.276Z,12
2016-12-10T03:17:59.653Z,12
2016-12-10T03:19:30.564Z,12
2016-12-10T03:21:01.503Z,12
2016-12-10T03:22:13.208Z,12
2016-12-10T03:23:44.185Z,12
2016-12-10T03:25:15.309Z,12
2016-12-10T03:27:53.802Z,12
2016-12-10T03:29:24.904Z,12
2016-12-10T03:30:55.837Z,12
2016-12-10T03:32:27.333Z,12
2016-12-10T03:33:39.117Z,12
2016-12-10T03:35:10.101Z,12
2016-12-10T03:36:41.046Z,12
2016-12-10T03:38:12.275Z,12
2016-12-10T03:39:43.428Z,12
2016-12-10T03:41:14.542Z,12
2016-12-10T03:42:26.303Z,12
2016-12-10T03:43:57.041Z,12
2016-12-10T03:45:28.278Z,12
2016-12-10T03:46:59.671Z,12
2016-12-10T03:48:30.588Z,12
2016-12-10T03:50:02.338Z,12
2016-12-10T03:51:14.007Z,12
2016-12-10T03:52:45.226Z,12
2016-12-10T03:54:16.239Z,12
2016-12-10T03:55:47.250Z,11
2016-12-10T03:57:18.294Z,11
2016-12-10T03:58:50.007Z,11
2016-12-10T04:00:20.983Z,11
2016-12-10T04:01:32.684Z,11
2016-12-10T04:03:03.423Z,11
2016-12-10T04:04:34.994Z,11
2016-12-10T04:06:06.084Z,11
2016-12-10T04:07:31.788Z,11
2016-12-10T04:08:43.571Z,11
2016-12-10T04:10:14.731Z,11
2016-12-10T04:11:46.829Z,11
2016-12-10T04:13:13.083Z,11
2016-12-10T04:14:24.921Z,11
2016-12-10T04:15:55.914Z,11
2016-12-10T04:17:27.383Z,11
2016-12-10T04:18:58.330Z,11
2016-12-10T04:20:10.150Z,11
2016-12-10T04:22:03.191Z,11
2016-12-10T04:23:15.197Z,11
2016-12-10T04:24:46.448Z,11
2016-12-10T04:26:17.581Z,11
2016-12-10T04:27:48.862Z,11
2016-12-10T04:29:20.006Z,11
2016-12-10T04:30:51.339Z,11
2016-12-10T04:32:03.410Z,11
2016-12-10T04:33:34.822Z,11
2016-12-10T04:35:06.061Z,11
2016-12-10T04:36:37.394Z,11
2016-12-10T04:38:11.300Z,11
2016-12-10T04:39:42.374Z,11
2016-12-10T04:41:13.249Z,11
2016-12-10T04:42:46.435Z,12
2016-12-10T04:44:18.097Z,12
2016-12-10T04:45:49.013Z,12
2016-12-10T04:47:00.713Z,12
2016-12-10T04:48:31.471Z,12
2016-12-10T04:50:02.980Z,12
2016-12-10T04:51:33.955Z,12
2016-12-10T04:53:04.838Z,12
2016-12-10T04:54:36.174Z,12
2016-12-10T04:55:48.635Z,12
2016-12-10T04:57:19.390Z,12
2016-12-10T04:58:50.448Z,12
2016-12-10T05:00:21.526Z,12
2016-12-10T05:01:53.281Z,12
2016-12-10T05:03:24.639Z,12
2016-12-10T05:04:57.716Z,12
2016-12-10T05:06:09.384Z,12
2016-12-10T05:07:40.750Z,12
2016-12-10T05:09:07.271Z,12
2016-12-10T05:10:38.152Z,12
2016-12-10T05:11:50.104Z,12
2016-12-10T05:13:16.402Z,12
2016-12-10T05:14:47.943Z,12
2016-12-10T05:16:18.818Z,12
2016-12-10T05:17:30.999Z,12
2016-12-10T05:20:35.271Z,12
2016-12-10T05:22:06.741Z,12
2016-12-10T05:23:37.776Z,12
2016-12-10T05:24:49.595Z,12
2016-12-10T05:26:20.856Z,12
2016-12-10T05:27:52.155Z,12
2016-12-10T05:29:23.277Z,12
2016-12-10T05:30:54.434Z,12
2016-12-10T05:32:25.789Z,12
2016-12-10T05:33:57.177Z,12
2016-12-10T05:35:09.237Z,12
2016-12-10T05:36:35.394Z,12
2016-12-10T05:38:06.934Z,12
2016-12-10T05:39:37.774Z,12
2016-12-10T05:40:49.805Z,12
2016-12-10T05:42:20.785Z,12
2016-12-10T05:43:51.939Z,12
2016-12-10T05:45:22.853Z,12
2016-12-10T05:46:48.581Z,12
2016-12-10T05:48:01.341Z,12
2016-12-10T05:49:32.261Z,12
2016-12-10T05:51:03.121Z,12
2016-12-10T05:52:34.622Z,12
2016-12-10T05:54:05.889Z,12
2016-12-10T05:55:42.977Z,12
2016-12-10T05:57:16.230Z,12
2016-12-10T05:58:52.058Z,11
2016-12-10T06:00:25.207Z,11
2016-12-10T06:01:56.347Z,11
2016-12-10T06:03:27.321Z,11
2016-12-10T06:04:58.310Z,11
2016-12-10T06:06:10.292Z,11
2016-12-10T06:07:41.549Z,11
2016-12-10T06:09:12.561Z,11
2016-12-10T06:10:43.469Z,11
2016-12-10T06:12:14.711Z,12
2016-12-10T06:13:48.383Z,12
2016-12-10T06:15:19.227Z,12
2016-12-10T06:16:50.397Z,12
2016-12-10T06:18:02.044Z,12
2016-12-10T06:19:32.962Z,11
2016-12-10T06:20:59.373Z,11
2016-12-10T06:22:30.657Z,11
2016-12-10T06:23:42.732Z,11
2016-12-10T06:25:13.668Z,11
2016-12-10T06:26:44.512Z,12
2016-12-10T06:28:15.737Z,11
2016-12-10T06:29:46.609Z,11
2016-12-10T06:31:17.908Z,11
2016-12-10T06:32:30.032Z,11
2016-12-10T06:34:00.918Z,11
2016-12-10T06:35:32.043Z,11
2016-12-10T06:36:58.141Z,11
2016-12-10T06:38:09.787Z,11
2016-12-10T06:39:40.450Z,11
2016-12-10T06:41:11.672Z,11
2016-12-10T06:42:42.886Z,11
2016-12-10T06:44:14.011Z,11
2016-12-10T06:45:25.672Z,12
2016-12-10T06:46:56.736Z,11
2016-12-10T06:48:28.267Z,11
2016-12-10T06:49:59.441Z,11
2016-12-10T06:51:30.663Z,11
2016-12-10T06:53:01.584Z,11
2016-12-10T06:54:33.006Z,11
2016-12-10T06:56:16.140Z,11
2016-12-10T06:57:47.048Z,11
2016-12-10T06:59:17.990Z,11
2016-12-10T07:00:49.127Z,11
2016-12-10T07:02:20.636Z,11
2016-12-10T07:03:52.010Z,11
2016-12-10T07:05:03.732Z,11
2016-12-10T07:06:29.990Z,11
2016-12-10T07:08:01.186Z,11
2016-12-10T07:09:32.123Z,11
2016-12-10T07:10:44.146Z,11
2016-12-10T07:12:15.037Z,11
2016-12-10T07:13:46.671Z,11
2016-12-10T07:15:17.972Z,11
2016-12-10T07:16:48.942Z,11
2016-12-10T07:18:19.870Z,11
2016-12-10T07:19:32.213Z,11
2016-12-10T07:21:04.478Z,11
2016-12-10T07:22:35.359Z,11
2016-12-10T07:24:06.490Z,11
2016-12-10T07:25:37.683Z,11
2016-12-10T07:27:10.343Z,11
2016-12-10T07:28:41.509Z,11
2016-12-10T07:30:12.462Z,11
2016-12-10T07:31:24.471Z,11
2016-12-10T07:32:55.441Z,11
2016-12-10T07:34:26.357Z,11
2016-12-10T07:35:57.361Z,11
2016-12-10T07:37:28.807Z,11
2016-12-10T07:38:59.729Z,11
2016-12-10T07:40:11.643Z,11
2016-12-10T07:41:42.345Z,11
2016-12-10T07:43:13.790Z,11
2016-12-10T07:44:47.228Z,11
2016-12-10T07:46:18.467Z,11
2016-12-10T07:47:49.940Z,11
2016-12-10T07:49:21.638Z,11
2016-12-10T07:50:52.984Z,11
2016-12-10T07:52:33.722Z,11
2016-12-10T07:54:33.913Z,11
2016-12-10T07:56:07.369Z,11
2016-12-10T07:57:40.047Z,11
2016-12-10T07:59:11.698Z,11
2016-12-10T08:00:44.484Z,11
2016-12-10T08:02:19.282Z,11
2016-12-10T08:03:50.764Z,11
2016-12-10T08:05:22.066Z,11
2016-12-10T08:06:53.281Z,11
2016-12-10T08:08:05.130Z,11
2016-12-10T08:09:36.050Z,11
2016-12-10T08:11:07.906Z,12
2016-12-10T08:12:39.417Z,11
2016-12-10T08:14:10.880Z,12
2016-12-10T08:15:42.358Z,12
2016-12-10T08:17:13.514Z,12
2016-12-10T08:18:25.596Z,12
2016-12-10T08:19:56.528Z,12
2016-12-10T08:21:28.082Z,12
2016-12-10T08:22:59.080Z,12
2016-12-10T08:24:30.291Z,12
2016-12-10T08:25:42.186Z,12
2016-12-10T08:27:12.864Z,12
2016-12-10T08:28:44.035Z,12
2016-12-10T08:30:15.210Z,12
2016-12-10T08:31:46.192Z,12
2016-12-10T08:33:17.793Z,12
2016-12-10T08:34:48.711Z,12
2016-12-10T08:36:01.092Z,12
2016-12-10T08:37:31.920Z,12
2016-12-10T08:39:02.815Z,12
2016-12-10T08:40:33.727Z,12
2016-12-10T08:42:05.361Z,12
2016-12-10T08:43:37.022Z,12
2016-12-10T08:45:08.453Z,12
2016-12-10T08:46:20.684Z,12
2016-12-10T08:47:51.855Z,12
2016-12-10T08:49:23.066Z,12
2016-12-10T08:50:54.547Z,13
2016-12-10T08:52:25.583Z,12
2016-12-10T08:53:57.158Z,13
2016-12-10T08:55:09.028Z,13
2016-12-10T08:56:40.319Z,13
2016-12-10T08:58:11.258Z,13
2016-12-10T08:59:42.574Z,13
2016-12-10T09:01:13.660Z,13
2016-12-10T09:02:44.988Z,13
2016-12-10T09:04:15.913Z,13
2016-12-10T09:05:27.920Z,13
2016-12-10T09:06:58.701Z,13
2016-12-10T09:08:29.812Z,13
2016-12-10T09:10:01.503Z,13
2016-12-10T09:11:32.731Z,13
2016-12-10T09:13:10.184Z,13
2016-12-10T09:14:41.108Z,13
2016-12-10T09:16:12.473Z,13
2016-12-10T09:17:46.177Z,13
2016-12-10T09:19:17.414Z,13
2016-12-10T09:20:48.389Z,13
2016-12-10T09:22:00.129Z,13
2016-12-10T09:23:31.208Z,13
2016-12-10T09:25:00.743Z,13
2016-12-10T09:26:12.486Z,14
2016-12-10T09:27:38.364Z,14
2016-12-10T09:29:09.757Z,14
2016-12-10T09:30:42.171Z,14
2016-12-10T09:31:54.027Z,14
2016-12-10T09:33:24.745Z,14
2016-12-10T09:34:56.124Z,14
2016-12-10T09:36:27.059Z,14
2016-12-10T09:37:59.111Z,14
2016-12-10T09:39:11.608Z,14
2016-12-10T09:40:42.740Z,14
2016-12-10T09:42:15.773Z,14
2016-12-10T09:43:47.149Z,14
2016-12-10T09:45:18.394Z,14
2016-12-10T09:46:49.701Z,14
2016-12-10T09:48:21.011Z,14
2016-12-10T09:49:52.246Z,14
2016-12-10T09:51:04.889Z,14
2016-12-10T09:52:36.067Z,15
2016-12-10T09:54:07.416Z,15
2016-12-10T09:55:38.760Z,15
2016-12-10T09:57:09.935Z,15
2016-12-10T09:58:41.156Z,15
2016-12-10T10:00:12.813Z,15
2016-12-10T10:01:24.494Z,15
2016-12-10T10:02:50.278Z,15
2016-12-10T10:04:21.436Z,15
2016-12-10T10:05:52.984Z,15
2016-12-10T10:07:04.788Z,15
2016-12-10T10:08:35.576Z,15
2016-12-10T10:10:06.706Z,15
2016-12-10T10:11:37.834Z,15
2016-12-10T10:13:08.701Z,15
2016-12-10T10:14:39.898Z,15
2016-12-10T10:15:51.848Z,15
2016-12-10T10:17:22.764Z,15
2016-12-10T10:18:53.837Z,15
2016-12-10T10:20:25.686Z,15
2016-12-10T10:21:57.090Z,15
2016-12-10T10:23:28.362Z,15
2016-12-10T10:24:59.430Z,16
2016-12-10T10:26:11.707Z,16
2016-12-10T10:27:42.683Z,16
2016-12-10T10:29:14.185Z,16
2016-12-10T10:30:45.674Z,16
2016-12-10T10:32:16.686Z,16
2016-12-10T10:33:48.345Z,16
2016-12-10T10:35:19.493Z,16
2016-12-10T10:36:32.217Z,16
2016-12-10T10:38:03.489Z,16
2016-12-10T10:39:35.873Z,16
2016-12-10T10:41:06.866Z,16
2016-12-10T10:42:32.731Z,16
2016-12-10T10:43:44.816Z,16
2016-12-10T10:45:15.939Z,16
2016-12-10T10:46:47.988Z,16
2016-12-10T10:48:21.819Z,16
2016-12-10T10:49:53.365Z,16
2016-12-10T10:51:25.141Z,16
2016-12-10T10:52:37.373Z,16
2016-12-10T10:54:08.479Z,16
2016-12-10T10:55:39.767Z,16
2016-12-10T10:57:11.633Z,16
2016-12-10T10:58:42.835Z,16
2016-12-10T11:00:14.533Z,16
2016-12-10T11:01:45.573Z,16
2016-12-10T11:03:17.481Z,16
2016-12-10T11:04:30.170Z,16
2016-12-10T11:06:01.022Z,16
2016-12-10T11:07:32.627Z,16
2016-12-10T11:09:04.839Z,16
2016-12-10T11:10:35.857Z,16
2016-12-10T11:12:06.019Z,16
2016-12-10T11:13:18.055Z,16
2016-12-10T11:14:49.564Z,16
2016-12-10T11:16:21.215Z,16
2016-12-10T11:17:52.751Z,16
2016-12-10T11:19:23.872Z,16
2016-12-10T11:20:55.353Z,16
2016-12-10T11:22:26.993Z,16
2016-12-10T11:23:57.930Z,16
2016-12-10T11:25:10.083Z,17
2016-12-10T11:26:41.457Z,17
2016-12-10T11:28:13.625Z,17
2016-12-10T11:29:44.628Z,17
2016-12-10T11:31:15.860Z,17
2016-12-10T11:32:47.360Z,17
2016-12-10T11:34:18.759Z,17
2016-12-10T11:35:30.925Z,17
2016-12-10T11:37:01.647Z,17
2016-12-10T11:38:32.878Z,17
2016-12-10T11:40:04.570Z,17
2016-12-10T11:41:30.611Z,17
2016-12-10T11:43:04.271Z,17
2016-12-10T11:44:17.610Z,17
2016-12-10T11:46:15.327Z,17
2016-12-10T11:47:46.783Z,17
2016-12-10T11:49:17.792Z,17
2016-12-10T11:50:49.439Z,17
2016-12-10T11:52:01.568Z,17
2016-12-10T11:53:32.279Z,17
2016-12-10T11:55:03.759Z,17
2016-12-10T11:56:36.152Z,17
2016-12-10T11:58:02.470Z,17
2016-12-10T11:59:14.236Z,17
2016-12-10T12:00:45.675Z,17
2016-12-10T12:02:16.840Z,17
2016-12-10T12:03:48.056Z,17
2016-12-10T12:05:19.874Z,17
2016-12-10T12:06:50.860Z,17
2016-12-10T12:08:02.785Z,17
2016-12-10T12:09:34.909Z,17
2016-12-10T12:11:05.804Z,17
2016-12-10T12:12:37.055Z,17
2016-12-10T12:14:08.213Z,17
2016-12-10T12:15:34.160Z,17
2016-12-10T12:17:14.167Z,17
2016-12-10T12:18:45.075Z,17
2016-12-10T12:20:13.444Z,17
2016-12-10T12:21:26.166Z,17
2016-12-10T12:22:57.044Z,17
2016-12-10T12:24:28.802Z,17
2016-12-10T12:26:00.302Z,18
2016-12-10T12:27:31.544Z,18
2016-12-10T12:28:43.268Z,18
2016-12-10T12:30:14.219Z,18
2016-12-10T12:31:45.423Z,18
2016-12-10T12:33:16.444Z,17
2016-12-10T12:34:48.159Z,18
2016-12-10T12:36:19.076Z,17
2016-12-10T12:37:50.903Z,18
2016-12-10T12:39:03.024Z,18
2016-12-10T12:40:33.778Z,18
2016-12-10T12:41:59.841Z,18
2016-12-10T12:43:31.307Z,18
2016-12-10T12:44:43.470Z,18
2016-12-10T12:46:14.284Z,18
2016-12-10T12:47:45.939Z,18
2016-12-10T12:49:17.562Z,18
2016-12-10T12:50:48.966Z,18
2016-12-10T12:52:20.382Z,18
2016-12-10T12:53:51.727Z,18
2016-12-10T12:55:04.261Z,18
2016-12-10T12:56:35.251Z,18
2016-12-10T12:58:06.607Z,18
2016-12-10T12:59:40.088Z,18
2016-12-10T13:01:14.168Z,18
2016-12-10T13:02:47.921Z,18
2016-12-10T13:04:21.988Z,18
2016-12-10T13:05:55.676Z,18
2016-12-10T13:07:31.257Z,18
2016-12-10T13:09:05.045Z,18
2016-12-10T13:10:59.424Z,18
2016-12-10T13:12:33.572Z,18
2016-12-10T13:14:07.318Z,18
2016-12-10T13:15:41.525Z,18
2016-12-10T13:17:15.486Z,18
2016-12-10T13:18:51.804Z,18
2016-12-10T13:20:49.513Z,19
2016-12-10T13:22:23.318Z,19
2016-12-10T13:23:57.418Z,19
2016-12-10T13:25:31.867Z,19
2016-12-10T13:27:06.292Z,19
2016-12-10T13:28:39.893Z,19
2016-12-10T13:30:14.088Z,19
2016-12-10T13:31:47.849Z,18
2016-12-10T13:33:22.345Z,18
2016-12-10T13:35:15.201Z,18
2016-12-10T13:36:49.612Z,18
2016-12-10T13:38:24.980Z,18
2016-12-10T13:39:59.706Z,18
2016-12-10T13:41:34.397Z,18
2016-12-10T13:43:09.202Z,19
2016-12-10T13:44:43.240Z,19
2016-12-10T13:46:17.780Z,19
2016-12-10T13:48:11.985Z,19
2016-12-10T13:49:26.825Z,19
2016-12-10T13:51:20.142Z,19
2016-12-10T13:52:54.649Z,19
2016-12-10T13:54:29.012Z,19
2016-12-10T13:56:06.194Z,19
2016-12-10T13:57:40.283Z,19
2016-12-10T13:59:09.252Z,19
2016-12-10T14:00:43.229Z,19
2016-12-10T14:02:17.809Z,18
2016-12-10T14:03:51.848Z,18
2016-12-10T14:05:26.231Z,18
2016-12-10T14:06:59.783Z,18
2016-12-10T14:08:34.446Z,18
2016-12-10T14:10:27.611Z,18
2016-12-10T14:12:01.200Z,18
2016-12-10T14:13:35.286Z,18
2016-12-10T14:15:14.404Z,18
2016-12-10T14:16:48.241Z,18
2016-12-10T14:18:43.614Z,18
2016-12-10T14:20:17.672Z,18
2016-12-10T14:21:52.419Z,18
2016-12-10T14:23:26.090Z,18
2016-12-10T14:25:00.158Z,18
2016-12-10T14:26:35.014Z,18
2016-12-10T14:28:09.098Z,18
2016-12-10T14:29:38.300Z,18
2016-12-10T14:31:12.487Z,18
2016-12-10T14:32:46.570Z,18
2016-12-10T14:34:21.133Z,18
2016-12-10T14:35:49.864Z,18
2016-12-10T14:37:20.961Z,18
2016-12-10T14:38:55.010Z,18
2016-12-10T14:40:29.118Z,18
2016-12-10T14:42:03.072Z,18
2016-12-10T14:43:36.702Z,18
2016-12-10T14:45:11.473Z,18
2016-12-10T14:46:46.051Z,18
2016-12-10T14:48:19.708Z,18
2016-12-10T14:49:54.036Z,18
2016-12-10T14:51:47.282Z,18
2016-12-10T14:53:20.749Z,18
2016-12-10T14:54:54.604Z,18
2016-12-10T14:56:28.557Z,18
2016-12-10T14:58:02.728Z,18
2016-12-10T14:59:37.003Z,18
2016-12-10T15:01:11.530Z,18
2016-12-10T15:02:45.360Z,18
2016-12-10T15:04:19.109Z,18
2016-12-10T15:05:52.793Z,18
2016-12-10T15:07:26.777Z,18
2016-12-10T15:09:00.902Z,18
2016-12-10T15:10:55.061Z,18
2016-12-10T15:12:28.792Z,18
2016-12-10T15:14:03.079Z,18
2016-12-10T15:15:37.332Z,18
2016-12-10T15:17:11.822Z,18
2016-12-10T15:18:40.956Z,18
2016-12-10T15:20:15.186Z,18
2016-12-10T15:21:50.549Z,18
2016-12-10T15:23:24.854Z,18
2016-12-10T15:24:59.243Z,18
2016-12-10T15:26:33.735Z,18
2016-12-10T15:28:07.590Z,18
2016-12-10T15:29:36.586Z,18
2016-12-10T15:31:10.181Z,18
2016-12-10T15:32:43.786Z,18
2016-12-10T15:34:19.930Z,18
2016-12-10T15:36:13.119Z,18
2016-12-10T15:37:46.701Z,17
2016-12-10T15:39:20.262Z,17
2016-12-10T15:40:54.088Z,17
2016-12-10T15:42:28.017Z,17
2016-12-10T15:43:57.185Z,17
2016-12-10T15:45:11.665Z,17
2016-12-10T15:47:04.462Z,17
2016-12-10T15:48:16.268Z,17
2016-12-10T15:49:42.864Z,17
2016-12-10T15:51:13.758Z,17
2016-12-10T15:52:45.142Z,17
2016-12-10T15:53:57.702Z,17
2016-12-10T15:55:29.050Z,17
2016-12-10T15:57:00.402Z,17
2016-12-10T15:58:32.004Z,17
2016-12-10T16:00:03.134Z,17
2016-12-10T16:01:34.365Z,16
2016-12-10T16:03:05.653Z,16
2016-12-10T16:04:17.854Z,16
2016-12-10T16:05:48.562Z,16
2016-12-10T16:07:15.109Z,16
2016-12-10T16:08:46.245Z,16
2016-12-10T16:09:58.301Z,16
2016-12-10T16:11:29.583Z,16
2016-12-10T16:13:01.065Z,16
2016-12-10T16:14:58.421Z,16
2016-12-10T16:16:10.936Z,16
2016-12-10T16:17:41.805Z,16
2016-12-10T16:19:14.031Z,16
2016-12-10T16:20:45.137Z,16
2016-12-10T16:22:17.964Z,16
2016-12-10T16:23:48.986Z,16
2016-12-10T16:25:20.870Z,16
2016-12-10T16:26:52.297Z,16
2016-12-10T16:28:04.440Z,16
2016-12-10T16:29:37.467Z,16
2016-12-10T16:31:08.991Z,16
2016-12-10T16:32:40.615Z,16
2016-12-10T16:34:12.524Z,16
2016-12-10T16:35:44.491Z,16
2016-12-10T16:37:16.784Z,16
2016-12-10T16:38:48.225Z,16
2016-12-10T16:40:20.187Z,16
2016-12-10T16:41:51.982Z,16
2016-12-10T16:43:23.096Z,16
2016-12-10T16:44:56.002Z,16
2016-12-10T16:46:08.497Z,16
2016-12-10T16:47:39.408Z,16
2016-12-10T16:49:11.440Z,15
2016-12-10T16:50:44.034Z,15
2016-12-10T16:52:16.597Z,15
2016-12-10T16:53:49.301Z,15
2016-12-10T16:55:23.229Z,15
2016-12-10T16:56:55.391Z,15
2016-12-10T16:58:28.372Z,15
2016-12-10T17:00:00.032Z,15
2016-12-10T17:01:31.706Z,15
2016-12-10T17:03:12.214Z,15
2016-12-10T17:04:45.544Z,15
2016-12-10T17:06:18.567Z,15
2016-12-10T17:07:50.218Z,15
2016-12-10T17:09:44.075Z,15
2016-12-10T17:11:19.191Z,15
2016-12-10T17:12:52.452Z,15
2016-12-10T17:14:33.028Z,15
2016-12-10T17:16:06.165Z,15
2016-12-10T17:17:37.718Z,15
2016-12-10T17:19:09.694Z,15
2016-12-10T17:22:17.339Z,15
2016-12-10T17:23:50.224Z,15
2016-12-10T17:25:23.877Z,15
2016-12-10T17:26:57.018Z,15
2016-12-10T17:28:26.811Z,15
2016-12-10T17:29:58.618Z,15
2016-12-10T17:31:29.934Z,15
2016-12-10T17:33:02.157Z,15
2016-12-10T17:34:33.478Z,15
2016-12-10T17:36:04.882Z,15
2016-12-10T17:37:17.704Z,15
2016-12-10T17:38:49.063Z,15
2016-12-10T17:40:20.055Z,15
2016-12-10T17:42:16.970Z,15
2016-12-10T17:43:28.876Z,14
2016-12-10T17:45:00.287Z,14
2016-12-10T17:46:32.815Z,14
2016-12-10T17:48:04.138Z,14
2016-12-10T17:49:35.559Z,14
2016-12-10T17:51:06.906Z,14
2016-12-10T17:52:38.456Z,14
2016-12-10T17:53:50.580Z,14
2016-12-10T17:55:22.730Z,14
2016-12-10T17:56:49.111Z,14
2016-12-10T17:58:20.712Z,14
2016-12-10T17:59:52.151Z,14
2016-12-10T18:01:04.519Z,14
2016-12-10T18:02:56.877Z,14
2016-12-10T18:04:09.515Z,14
2016-12-10T18:05:40.688Z,14
2016-12-10T18:07:12.082Z,14
2016-12-10T18:08:44.508Z,14
2016-12-10T18:10:15.858Z,14
2016-12-10T18:11:47.162Z,14
2016-12-10T18:13:18.769Z,14
2016-12-10T18:14:50.167Z,14
2016-12-10T18:16:02.143Z,14
2016-12-10T18:17:33.198Z,14
2016-12-10T18:19:04.378Z,15
2016-12-10T18:20:36.390Z,15
2016-12-10T18:22:07.526Z,15
2016-12-10T18:23:38.705Z,15
2016-12-10T18:25:09.889Z,15
2016-12-10T18:26:23.244Z,15
2016-12-10T18:27:54.097Z,15
2016-12-10T18:29:25.407Z,15
2016-12-10T18:30:56.762Z,15
2016-12-10T18:32:28.819Z,15
2016-12-10T18:33:41.166Z,15
2016-12-10T18:35:12.048Z,15
2016-12-10T18:36:43.464Z,15
2016-12-10T18:38:14.975Z,15
2016-12-10T18:39:46.073Z,15
2016-12-10T18:41:19.901Z,15
2016-12-10T18:42:51.326Z,15
2016-12-10T18:44:22.732Z,15
2016-12-10T18:45:34.860Z,15
2016-12-10T18:47:28.630Z,15
2016-12-10T18:48:41.362Z,15
2016-12-10T18:50:40.850Z,15
2016-12-10T18:52:15.239Z,15
2016-12-10T18:54:10.646Z,15
2016-12-10T18:55:46.190Z,15
2016-12-10T18:57:19.965Z,15
2016-12-10T18:58:58.282Z,15
2016-12-10T19:00:31.105Z,15
2016-12-10T19:01:45.866Z,15
2016-12-10T19:02:57.649Z,15
2016-12-10T19:04:14.853Z,15
2016-12-10T19:05:27.207Z,15
2016-12-10T19:06:40.865Z,15
2016-12-10T19:07:57.938Z,15
2016-12-10T19:09:09.389Z,15
2016-12-10T19:10:22.071Z,15
2016-12-10T19:11:33.714Z,15
2016-12-10T19:12:44.790Z,15
2016-12-10T19:13:57.728Z,15
2016-12-10T19:15:09.572Z,15
2016-12-10T19:16:21.442Z,15
2016-12-10T19:17:35.046Z,15
2016-12-10T19:18:46.729Z,15
2016-12-10T19:19:58.522Z,15
2016-12-10T19:21:11.149Z,15
2016-12-10T19:22:52.055Z,15
2016-12-10T19:24:03.601Z,15
2016-12-10T19:25:15.199Z,15
2016-12-10T19:26:26.908Z,15
2016-12-10T19:27:38.072Z,15
2016-12-10T19:30:16.708Z,15
2016-12-10T19:31:30.497Z,15
2016-12-10T19:32:44.306Z,15
2016-12-10T19:33:55.417Z,15
2016-12-10T19:35:07.358Z,15
2016-12-10T19:36:18.731Z,15
2016-12-10T19:37:30.414Z,15
2016-12-10T19:38:42.747Z,15
2016-12-10T19:41:49.815Z,15
2016-12-10T19:43:25.688Z,15
2016-12-10T19:44:56.774Z,15
2016-12-10T19:46:28.478Z,15
2016-12-10T19:48:00.898Z,15
2016-12-10T19:49:34.173Z,15
2016-12-10T19:51:05.283Z,15
2016-12-10T19:52:38.056Z,15
2016-12-10T19:54:10.669Z,15
2016-12-10T19:55:44.525Z,15
2016-12-10T19:57:11.970Z,15
2016-12-10T19:58:24.809Z,15
2016-12-10T19:59:56.338Z,15
2016-12-10T20:01:28.669Z,15
2016-12-10T20:03:00.399Z,15
2016-12-10T20:04:34.030Z,15
2016-12-10T20:06:07.029Z,15
2016-12-10T20:07:20.244Z,15
2016-12-10T20:08:54.043Z,15
2016-12-10T20:10:26.064Z,15
2016-12-10T20:11:58.034Z,15
2016-12-10T20:13:30.502Z,15
2016-12-10T20:15:02.171Z,15
2016-12-10T20:16:34.019Z,15
2016-12-10T20:18:05.243Z,15
2016-12-10T20:19:37.647Z,15
2016-12-10T20:21:09.843Z,15
2016-12-10T20:22:42.066Z,15
2016-12-10T20:23:55.480Z,15
2016-12-10T20:25:27.964Z,15
2016-12-10T20:26:59.788Z,15
2016-12-10T20:28:31.937Z,14
2016-12-10T20:30:03.050Z,14
2016-12-10T20:31:34.559Z,14
2016-12-10T20:33:05.748Z,14
2016-12-10T20:34:37.590Z,15
2016-12-10T20:36:13.943Z,14
2016-12-10T20:37:49.156Z,15
2016-12-10T20:39:23.619Z,14
2016-12-10T20:41:17.894Z,15
2016-12-10T20:42:52.471Z,15
2016-12-10T20:44:26.457Z,15
2016-12-10T20:45:55.848Z,15
2016-12-10T20:47:08.562Z,15
2016-12-10T20:48:19.706Z,15
2016-12-10T20:49:31.009Z,15
2016-12-10T20:50:42.865Z,15
2016-12-10T20:51:54.458Z,15
2016-12-10T20:53:05.918Z,15
2016-12-10T20:54:17.283Z,15
2016-12-10T20:55:28.834Z,15
2016-12-10T20:56:40.094Z,15
2016-12-10T20:57:51.637Z,15
2016-12-10T20:59:03.681Z,15
2016-12-10T21:00:14.834Z,15
2016-12-10T21:01:26.193Z,15
2016-12-10T21:02:37.417Z,15
2016-12-10T21:03:48.646Z,15
2016-12-10T21:05:00.192Z,15
2016-12-10T21:06:11.512Z,15
2016-12-10T21:07:22.860Z,15
2016-12-10T21:08:33.997Z,15
2016-12-10T21:11:11.859Z,15
2016-12-10T21:12:22.906Z,15
2016-12-10T21:13:34.096Z,15